Inhaltsbereich

METAR / TAF

Die METAR- und TAF-Liste ist aus technischen Gründen (Verfügbarkeit, Update-Zyklen) nicht für ein Meteo-Briefing gedacht. Benutzen Sie stattdessen skybriefing der Skyguide  oder das TAMSI (MeteoSchweiz-eigene Meteo Selfbriefing-Plattform für Firmen aus der Aviatik; Anfragen über das

Kontaktformular

METAR Schweiz

METAR     LFSB 271430Z AUTO 27009KT 9999 RA FEW016/// SCT034///
               BKN044/// ///CB 11/09 Q1005 TEMPO 26015G25KT 4000
               SHRA=
METAR     LSGC 271350Z 24009KT 180V260 9999 4500SW -RA BKN008 06/05
               Q1005 WS R24=
METAR     LSGC 271420Z 24011KT 200V280 7000 -RA BKN007 06/05 Q1006 WS
               R24=
METAR     LSGG 271350Z 22015KT 9999 VCSH FEW035 BKN060 12/06 Q1008
               NOSIG=
METAR     LSGG 271420Z 20013KT 9999 VCSH FEW035 BKN060 13/06 Q1008
               NOSIG=
METAR     LSGS 271350Z 26012KT 230V290 9999 SCT060 BKN100 15/02
               Q1005=
METAR     LSGS 271420Z 26012KT 230V290 9999 SCT070 BKN100 16/02
               Q1005=
METAR     LSMA 271350Z 27008KT 230V320 9999 FEW049 BKN068 14/04 Q1005
               RMK BLU=
METAR     LSMA 271420Z 23007KT 200V270 9999 FEW070 BKN093 14/04 Q1005
               RMK BLU=
METAR     LSMD 271350Z 25010KT 210V320 9999 -SHRA BKN034 BKN079 12/06
               Q1005 RMK BLU=
METAR     LSMD 271420Z 25012KT 200V330 9999 -SHRA FEW036 BKN041
               BKN055 12/05 Q1004 RMK BLU=
METAR     LSME 271350Z 25009KT 210V300 9999 FEW017 SCT034 BKN083
               12/07 Q1005 RMK BLU=
METAR     LSME 271420Z NIL=
METAR     LSMM 271350Z VRB04KT 9999 FEW045 BKN079 12/06 Q1005 RMK
               BLU=
METAR     LSMM 271420Z VRB04KT 9999 FEW046 SCT076 BKN086 12/06 Q1005
               RMK BLU=
METAR     LSMP 271350Z 23014KT 9999 FEW033 SCT039 12/06 Q1006 RMK
               BLU+=
METAR     LSMP 271420Z 22012KT 9999 SCT045 BKN083 13/06 Q1006 RMK
               BLU=
METAR     LSZA 271350Z 03004KT 360V080 9999 FEW080 21/05 Q0999=
METAR     LSZA 271420Z 04004KT 360V100 9999 FEW080 22/04 Q0999=
METAR     LSZB 271350Z 25007KT 210V290 9999 FEW029 SCT050 BKN085
               13/07 Q1006=
METAR     LSZB 271420Z 26010KT 9999 VCSH FEW029 SCT052 BKN085 12/05
               Q1006=
METAR     LSZC 271350Z AUTO 33006KT 9999 SCT055 BKN065 13/05 Q1005=
METAR     LSZC 271420Z AUTO VRB01KT 9999 BKN060 BKN070 13/06 Q1005=
METAR     LSZG 271350Z 24012KT 9000 -RA SCT031 BKN039 11/08 Q1005=
METAR     LSZG 271420Z AUTO 24012G23KT 210V280 9999 FEW030 SCT042
               BKN049 12/08 Q1005=
METAR     LSZH 271350Z 24015KT 9999 -SHRA SCT027 BKN050 12/06 Q1004
               TEMPO SHRA=
METAR     LSZH 271420Z 25013KT 9999 VCSH FEW030 SCT050 BKN070 11/07
               Q1004 TEMPO SHRA=
METAR RRA LSZL 271350Z 27004KT 240V300 9999 FEW100 20/08 Q0999 RMK
               BLU+=
METAR RRA LSZL 271420Z 27004KT 9999 FEW100 20/09 Q0999 RMK BLU+=
METAR     LSZR 271350Z 23005KT 160V300 9999 FEW025 SCT050 13/05 Q1004
               RMK K=
METAR     LSZR 271420Z 24007KT 190V280 9999 FEW025 BKN048 14/07 Q1004
               RMK L=
METAR     LSZS 271350Z 02012KT 330V040 9999 SCT060 BKN070 08/M04
               Q1003 RMK Q TL180=
METAR     LSZS 271420Z 03010KT 330V080 9999 BKN060 08/M03 Q1003 RMK R
               TL180=
Aktualisiert am Dienstag, 27. September 2022, 16:43 Uhr

TAF Schweiz

TAF     LFSB 271100Z 2712/2812 24010KT 9999 FEW020 BKN040 TEMPO
             2712/2724 26015G25KT 4000 SHRA SCT030TCU TEMPO 2800/2812
             30010G20KT 4000 RA BKN012 FEW020TCU=
TAF     LSGC 271125Z 2712/2721 24010KT 9999 BKN010 BKN014 TEMPO
             2712/2721 SHRA BKN004=
TAF     LSGG 271125Z 2712/2818 22012KT 9999 FEW030 BKN080 TX15/2715Z
             TN10/2806Z TX15/2815Z TEMPO 2712/2724 SHRA BECMG
             2800/2802 RA=
TAF     LSGS 271125Z 2712/2721 24010KT 9999 FEW035 SCT060 BKN100
             PROB30 TEMPO 2712/2721 SHRA=
TAF     LSMA 270925Z 2710/2816 22005KT 9999 FEW020 SCT040 BKN055
             TEMPO 2710/2724 SHRA PROB30 TEMPO 2710/2718 22015G25KT
             TEMPO 2800/2816 RA PROB40 TEMPO 2808/2816 4000 BKN014=
TAF     LSMD 270925Z 2710/2816 29010KT 9999 FEW030 SCT040 BKN060
             TEMPO 2710/2724 SHRA PROB40 TEMPO 2710/2718 29015G25KT
             TEMPO 2800/2816 VRB02KT RA PROB40 TEMPO 2806/2813 4000
             BKN014=
TAF     LSME 270925Z 2710/2816 23007KT 9999 FEW020 SCT040 BKN055
             TEMPO 2710/2724 SHRA PROB30 TEMPO 2710/2718 25015G25KT
             TEMPO 2800/2816 RA PROB40 TEMPO 2806/2813 4000 BKN014=
TAF     LSMM 270925Z 2710/2816 27007KT 9999 FEW020 SCT045 BKN055
             TEMPO 2710/2724 SHRA PROB30 TEMPO 2710/2718 27015G25KT
             TEMPO 2800/2816 RA PROB40 TEMPO 2808/2816 3000 +RA
             BKN012=
TAF     LSMP 270925Z 2710/2816 20012KT 9999 SCT090 TEMPO 2710/2723
             SHRA BKN040 BECMG 2723/2801 RA=
TAF     LSZA 271125Z 2712/2721 VRB02KT 9999 FEW070 TEMPO 2712/2719
             01015G25KT CAVOK=
TAF     LSZB 271125Z 2712/2721 24008KT 9999 FEW025 SCT030 BKN040
             TEMPO 2712/2721 SHRA TEMPO 2712/2718 26015G25KT=
TAF     LSZC 271125Z 2712/2721 VRB02KT 9999 FEW025 BKN050 TEMPO
             2712/2721 SHRA PROB40 TEMPO 2712/2718 27010KT PROB30
             TEMPO 2712/2718 32015G25KT=
TAF     LSZG 271125Z 2712/2721 25010KT 9999 FEW030 BKN045 TEMPO
             2712/2718 25015G28KT SHRA TEMPO 2718/2721 SHRA=
TAF     LSZH 271125Z 2712/2818 25012KT 9999 FEW015 SCT020 BKN040
             TX12/2713Z TN09/2804Z TX12/2813Z TEMPO 2712/2718
             27015G25KT TEMPO 2712/2724 SHRA TEMPO 2712/2716
             29015G30KT BECMG 2717/2720 25008KT TEMPO 2800/2818 RA
             PROB40 TEMPO 2806/2813 4000 BKN014=
TAF AAA LSZH 271236Z 2712/2818 25010KT 9999 FEW015 SCT025 BKN040
             TX12/2713Z TN09/2804Z TX12/2813Z TEMPO 2712/2717
             27015G28KT TEMPO 2712/2724 SHRA BECMG 2800/2804 24005KT
             RA PROB40 TEMPO 2806/2813 4000 BKN014=
TAF     LSZL 271125Z 2712/2721 27004KT 9999 FEW070 PROB30 TEMPO
             2712/2719 09010KT=
TAF     LSZR 271125Z 2712/2721 25010KT 9999 SCT030 BKN050 TEMPO
             2712/2721 SHRA TEMPO 2712/2718 27015G25KT=
TAF     LSZS 271125Z 2712/2721 02007KT 9999 SCT045 BKN055 TX07/2713Z
             PROB40 TEMPO 2712/2721 SHRA PROB30 TEMPO 2712/2721
             02015G25KT 4000 SHSNRA BKN012=
Aktualisiert am Dienstag, 27. September 2022, 15:02 Uhr